Time;durP1;ratioP1;P1;durP2;ratioP2;P2;SDS_P1;SDS_P2;PMS_P1;PMS_P2;Temp;Humidity;BMP_temperature;BMP_pressure;BME280_temperature;BME280_humidity;BME280_pressure;Samples;Min_cycle;Max_cycle;Signal;HPM_P1;HPM_P2
2023/07/11 00:01:32;;;;;;;2.97;2.77;;;26.50;51.50;26.10;96845.00;;;;4975793;28;20206;-81
2023/07/11 00:03:59;;;;;;;2.40;2.20;;;26.50;52.30;26.00;96842.00;;;;4977858;28;20305;-81
2023/07/11 00:06:27;;;;;;;3.10;2.80;;;26.50;51.90;26.00;96847.00;;;;4968188;28;20223;-81
2023/07/11 00:08:54;;;;;;;6.33;2.67;;;26.40;51.90;25.90;96847.00;;;;4975651;28;20214;-81
2023/07/11 00:11:21;;;;;;;2.90;2.60;;;26.30;51.90;25.90;96846.00;;;;4970614;28;20214;-81
2023/07/11 00:13:53;;;;;;;2.30;2.10;;;26.30;52.00;25.80;96845.00;;;;4970209;28;20204;-81
2023/07/11 00:16:22;;;;;;;2.83;2.63;;;26.30;52.20;25.80;96836.00;;;;4965740;28;20215;-81
2023/07/11 00:18:49;;;;;;;2.87;2.67;;;26.20;52.20;25.70;96840.00;;;;4973509;28;20209;-80
2023/07/11 00:21:16;;;;;;;2.67;2.47;;;26.20;52.40;25.70;96839.00;;;;4967510;28;20207;-80
2023/07/11 00:23:44;;;;;;;3.03;2.53;;;26.10;52.40;25.60;96841.00;;;;4973950;28;20203;-80
2023/07/11 00:26:11;;;;;;;3.50;2.83;;;26.10;52.60;25.60;96847.00;;;;4968506;28;20223;-80
2023/07/11 00:28:39;;;;;;;2.40;2.20;;;26.10;52.60;25.60;96838.00;;;;4965973;28;20297;-80
2023/07/11 00:31:08;;;;;;;3.63;2.60;;;26.00;52.60;25.50;96838.00;;;;4971820;28;20200;-80
2023/07/11 00:33:36;;;;;;;3.00;2.80;;;26.00;52.80;25.50;96843.00;;;;4941113;28;20200;-80
2023/07/11 00:36:03;;;;;;;3.10;2.80;;;25.90;52.80;25.50;96836.00;;;;4972522;28;20232;-80
2023/07/11 00:38:31;;;;;;;2.97;2.77;;;25.90;52.90;25.40;96837.00;;;;4966144;28;20826;-81
2023/07/11 00:40:59;;;;;;;3.23;2.57;;;25.90;53.00;25.40;96829.00;;;;4956654;28;20192;-80
2023/07/11 00:43:26;;;;;;;2.77;2.57;;;25.80;53.00;25.40;96828.00;;;;4966352;28;20200;-80
2023/07/11 00:46:12;;;;;;;3.17;2.97;;;25.80;53.10;25.30;96828.00;;;;4971260;28;20223;-80
2023/07/11 00:48:44;;;;;;;3.23;2.80;;;25.80;53.40;25.30;96833.00;;;;4951111;28;20199;-81
2023/07/11 00:51:17;;;;;;;4.83;2.87;;;25.80;53.20;25.30;96834.00;;;;4970837;28;20211;-81
2023/07/11 00:53:49;;;;;;;3.97;2.70;;;25.70;53.30;25.20;96824.00;;;;4966017;28;20584;-80
2023/07/11 00:56:22;;;;;;;3.10;2.57;;;25.70;53.30;25.20;96828.00;;;;4968968;28;20227;-81
2023/07/11 00:58:51;;;;;;;3.03;2.73;;;25.60;53.40;25.20;96821.00;;;;4958252;28;20204;-80
2023/07/11 01:01:21;;;;;;;3.40;3.10;;;25.60;53.30;25.10;96823.00;;;;4968578;28;20210;-81
2023/07/11 01:03:51;;;;;;;2.90;2.70;;;25.60;53.50;25.10;96823.00;;;;4970509;28;20723;-80
2023/07/11 01:06:25;;;;;;;3.00;2.80;;;25.60;53.50;25.10;96819.00;;;;4961228;28;20738;-80
2023/07/11 01:08:57;;;;;;;3.10;2.77;;;25.60;53.70;25.10;96811.00;;;;4965025;28;20834;-80
2023/07/11 01:11:28;;;;;;;3.20;3.00;;;25.50;53.70;25.10;96815.00;;;;4964793;28;20286;-79
2023/07/11 01:13:56;;;;;;;2.87;2.67;;;25.50;53.70;25.00;96814.00;;;;4962806;28;20198;-81
2023/07/11 01:16:25;;;;;;;4.47;2.83;;;25.40;53.70;25.00;96813.00;;;;4970159;28;20224;-80
2023/07/11 01:18:53;;;;;;;2.90;2.70;;;25.40;53.90;25.00;96810.00;;;;4971354;28;20262;-81
2023/07/11 01:21:22;;;;;;;3.50;3.20;;;25.40;53.90;25.00;96817.00;;;;4970965;28;20576;-81
2023/07/11 01:23:50;;;;;;;2.97;2.67;;;25.40;54.00;25.00;96798.00;;;;4966057;28;20207;-80
2023/07/11 01:26:17;;;;;;;3.50;3.20;;;25.40;54.10;25.00;96801.00;;;;4974884;28;20215;-80
2023/07/11 01:28:44;;;;;;;2.93;2.73;;;25.40;54.10;25.00;96802.00;;;;4969835;28;20210;-80
2023/07/11 01:31:13;;;;;;;3.73;3.23;;;25.40;54.20;24.90;96804.00;;;;4972909;28;20204;-80
2023/07/11 01:33:40;;;;;;;3.70;3.20;;;25.30;54.10;24.90;96804.00;;;;4964461;28;20200;-80
2023/07/11 01:36:08;;;;;;;3.80;3.50;;;25.30;54.10;24.90;96800.00;;;;4961367;28;20223;-80
2023/07/11 01:38:39;;;;;;;2.97;2.77;;;25.30;54.30;24.90;96788.00;;;;4969383;28;20707;-80
2023/07/11 01:41:06;;;;;;;3.13;2.60;;;25.30;54.40;24.90;96791.00;;;;4971535;28;20195;-80
2023/07/11 01:43:34;;;;;;;6.27;3.30;;;25.30;54.40;24.80;96788.00;;;;4963427;28;20571;-80
2023/07/11 01:46:01;;;;;;;3.93;2.90;;;25.20;54.40;24.80;96792.00;;;;4964774;28;20234;-80
2023/07/11 01:48:29;;;;;;;2.97;2.67;;;25.20;54.50;24.80;96781.00;;;;4974067;28;20191;-81
2023/07/11 01:50:57;;;;;;;3.33;2.97;;;25.20;54.60;24.80;96783.00;;;;4956109;28;20210;-80
2023/07/11 01:53:24;;;;;;;2.93;2.70;;;25.20;54.70;24.80;96787.00;;;;4975025;28;20578;-80
2023/07/11 01:55:58;;;;;;;3.50;3.20;;;25.20;54.70;24.80;96772.00;;;;4964882;28;20223;-80
2023/07/11 01:58:26;;;;;;;3.33;3.03;;;25.20;55.10;24.80;96778.00;;;;4972856;28;20229;-80
2023/07/11 02:00:55;;;;;;;2.77;2.57;;;25.20;54.90;24.70;96776.00;;;;4973290;28;20262;-80
2023/07/11 02:03:22;;;;;;;3.40;3.10;;;25.20;55.00;24.70;96771.00;;;;4967912;28;20231;-81
2023/07/11 02:05:50;;;;;;;3.17;2.90;;;25.20;55.10;24.70;96769.00;;;;4973823;28;20226;-80
2023/07/11 02:08:17;;;;;;;3.50;3.10;;;25.10;55.70;24.70;96767.00;;;;4972139;28;20208;-80
2023/07/11 02:10:45;;;;;;;4.20;2.93;;;25.10;55.10;24.70;96770.00;;;;4967848;28;20245;-80
2023/07/11 02:13:14;;;;;;;3.57;2.97;;;25.10;55.20;24.70;96767.00;;;;4967630;28;20281;-80
2023/07/11 02:15:43;;;;;;;3.03;2.83;;;25.10;55.30;24.60;96758.00;;;;4975410;28;20238;-80
2023/07/11 02:18:11;;;;;;;3.03;2.80;;;25.10;55.30;24.60;96758.00;;;;4974731;28;20205;-80
2023/07/11 02:20:43;;;;;;;4.73;3.47;;;25.10;55.40;24.60;96761.00;;;;4973731;28;20203;-81
2023/07/11 02:23:11;;;;;;;4.03;2.70;;;25.00;55.60;24.60;96759.00;;;;4960495;28;20728;-79
2023/07/11 02:25:38;;;;;;;3.30;3.00;;;25.00;55.50;24.60;96753.00;;;;4965202;28;20282;-79
2023/07/11 02:28:06;;;;;;;3.23;2.97;;;25.00;56.10;24.50;96755.00;;;;4967554;28;20195;-80
2023/07/11 02:30:36;;;;;;;3.13;2.53;;;25.00;55.60;24.50;96755.00;;;;4972747;28;20285;-81
2023/07/11 02:33:03;;;;;;;3.10;2.80;;;24.90;55.70;24.50;96762.00;;;;4952981;28;20192;-80
2023/07/11 02:35:31;;;;;;;2.83;2.63;;;25.00;55.70;24.50;96768.00;;;;4972218;28;20224;-80
2023/07/11 02:38:00;;;;;;;3.23;2.90;;;24.90;55.80;24.40;96765.00;;;;4968720;28;20207;-80
2023/07/11 02:40:27;;;;;;;2.87;2.67;;;24.90;55.90;24.40;96759.00;;;;4965450;28;21442;-80
2023/07/11 02:42:55;;;;;;;4.00;3.37;;;24.90;55.90;24.40;96761.00;;;;4968991;28;20278;-80
2023/07/11 02:45:22;;;;;;;3.40;3.10;;;24.90;55.90;24.40;96755.00;;;;4967083;28;20258;-80
2023/07/11 02:47:52;;;;;;;4.33;2.90;;;24.80;55.90;24.30;96753.00;;;;4969134;28;20207;-80
2023/07/11 02:50:21;;;;;;;3.13;2.90;;;24.80;56.10;24.30;96759.00;;;;4975293;28;20229;-81
2023/07/11 02:52:49;;;;;;;3.40;3.10;;;24.80;56.10;24.20;96757.00;;;;4966517;28;20578;-80
2023/07/11 02:55:16;;;;;;;3.23;2.93;;;24.70;56.00;24.20;96751.00;;;;4974611;28;20245;-81
2023/07/11 02:57:44;;;;;;;2.93;2.73;;;24.70;56.00;24.10;96752.00;;;;4973768;28;20876;-80
2023/07/11 03:00:13;;;;;;;3.13;2.83;;;24.70;56.10;24.10;96741.00;;;;4960413;28;20227;-80
2023/07/11 03:02:41;;;;;;;2.90;2.70;;;24.60;56.20;24.10;96743.00;;;;4967765;28;20209;-81
2023/07/11 03:05:11;;;;;;;3.00;2.80;;;24.60;56.30;24.00;96729.00;;;;4975026;28;20230;-80
2023/07/11 03:07:38;;;;;;;3.13;2.93;;;24.60;56.50;24.00;96736.00;;;;4966667;28;20281;-81
2023/07/11 03:10:15;;;;;;;3.27;2.97;;;24.50;56.50;24.00;96734.00;;;;4966549;28;20199;-80
2023/07/11 03:12:42;;;;;;;3.37;2.97;;;24.50;56.60;23.90;96735.00;;;;4968037;28;20212;-80
2023/07/11 03:15:10;;;;;;;3.70;3.20;;;24.50;56.60;23.90;96732.00;;;;4960943;28;20214;-80
2023/07/11 03:17:38;;;;;;;3.50;3.20;;;24.40;56.70;23.90;96727.00;;;;4965246;28;20200;-80
2023/07/11 03:20:06;;;;;;;4.10;3.23;;;24.40;56.80;23.90;96722.00;;;;4972980;28;20213;-79
2023/07/11 03:22:34;;;;;;;3.10;2.83;;;24.40;56.80;23.80;96719.00;;;;4959170;28;20211;-80
2023/07/11 03:25:02;;;;;;;3.30;3.10;;;24.40;56.90;23.80;96714.00;;;;4955256;28;20227;-79
2023/07/11 03:27:30;;;;;;;3.43;3.13;;;24.30;56.90;23.80;96721.00;;;;4968865;28;20230;-80
2023/07/11 03:29:58;;;;;;;3.03;2.83;;;24.30;57.00;23.70;96713.00;;;;4966924;28;20289;-80
2023/07/11 03:32:25;;;;;;;5.73;3.27;;;24.30;57.10;23.70;96716.00;;;;4966249;28;20198;-79
2023/07/11 03:34:52;;;;;;;3.40;2.87;;;24.30;57.20;23.70;96716.00;;;;4966075;28;20202;-80
2023/07/11 03:37:19;;;;;;;3.50;3.20;;;24.20;57.30;23.70;96716.00;;;;4967781;28;20224;-79
2023/07/11 03:39:48;;;;;;;3.07;2.87;;;24.20;57.40;23.70;96718.00;;;;4964796;28;20286;-80
2023/07/11 03:42:16;;;;;;;3.53;3.10;;;24.20;57.60;23.70;96713.00;;;;4950154;28;20195;-80
2023/07/11 03:44:44;;;;;;;5.90;3.60;;;24.20;57.60;23.60;96710.00;;;;4963301;28;20747;-80
2023/07/11 03:47:13;;;;;;;3.50;3.17;;;24.20;57.60;23.60;96712.00;;;;4961992;28;20292;-81
2023/07/11 03:49:40;;;;;;;3.90;3.13;;;24.10;57.60;23.50;96706.00;;;;4957706;28;20204;-79
2023/07/11 03:52:08;;;;;;;3.70;3.40;;;24.10;57.70;23.50;96709.00;;;;4939232;29;20213;-80
2023/07/11 03:54:36;;;;;;;3.30;3.10;;;24.00;57.80;23.50;96712.00;;;;4963207;28;20203;-79
2023/07/11 03:57:05;;;;;;;4.23;3.83;;;24.00;57.90;23.50;96715.00;;;;4966099;28;20226;-80
2023/07/11 03:59:33;;;;;;;3.40;3.10;;;24.00;58.10;23.50;96715.00;;;;4966514;28;20213;-81
2023/07/11 04:02:01;;;;;;;3.80;3.50;;;24.00;58.60;23.50;96708.00;;;;4969618;28;20201;-80
2023/07/11 04:04:28;;;;;;;3.23;3.03;;;24.00;58.70;23.40;96713.00;;;;4976372;28;20643;-81
2023/07/11 04:06:56;;;;;;;4.27;3.87;;;24.00;58.20;23.40;96709.00;;;;4975735;28;20226;-80
2023/07/11 04:09:23;;;;;;;3.80;3.50;;;23.90;58.20;23.40;96708.00;;;;4959927;28;20633;-79
2023/07/11 04:11:51;;;;;;;3.53;3.27;;;23.90;58.30;23.40;96717.00;;;;4970196;28;20229;-81
2023/07/11 04:14:19;;;;;;;3.70;3.03;;;23.90;58.40;23.40;96713.00;;;;4966590;28;20589;-82
2023/07/11 04:16:46;;;;;;;3.90;3.50;;;23.90;58.50;23.40;96709.00;;;;4966915;28;20772;-82
2023/07/11 04:19:14;;;;;;;4.03;3.60;;;23.90;58.50;23.40;96696.00;;;;4970709;28;20208;-82
2023/07/11 04:21:41;;;;;;;5.97;4.00;;;23.90;59.20;23.40;96700.00;;;;4967487;28;20206;-84
2023/07/11 04:24:08;;;;;;;4.13;3.73;;;23.90;58.70;23.40;96706.00;;;;4957934;28;20205;-82
2023/07/11 04:26:36;;;;;;;4.20;3.37;;;23.90;58.90;23.40;96705.00;;;;4966030;28;20231;-81
2023/07/11 04:29:03;;;;;;;3.43;3.13;;;23.90;59.00;23.40;96705.00;;;;4968898;28;20204;-80
2023/07/11 04:31:32;;;;;;;3.17;2.87;;;23.90;59.10;23.40;96704.00;;;;4967520;28;20216;-82
2023/07/11 04:34:00;;;;;;;4.40;3.73;;;23.90;59.30;23.40;96709.00;;;;4970209;28;20298;-84
2023/07/11 04:36:29;;;;;;;4.00;3.37;;;23.90;59.20;23.40;96707.00;;;;4954554;28;20224;-83
2023/07/11 04:38:56;;;;;;;3.50;3.20;;;23.90;59.20;23.40;96701.00;;;;4966566;28;20195;-81
2023/07/11 04:41:23;;;;;;;3.47;3.17;;;23.90;59.40;23.50;96707.00;;;;4974871;28;20588;-83
2023/07/11 04:43:51;;;;;;;4.37;3.60;;;23.90;59.50;23.50;96710.00;;;;4954613;28;20208;-83
2023/07/11 04:46:18;;;;;;;3.63;3.30;;;23.90;59.60;23.50;96706.00;;;;4966663;28;20230;-83
2023/07/11 04:48:48;;;;;;;3.83;3.53;;;23.90;59.60;23.50;96702.00;;;;4970110;28;20711;-83
2023/07/11 04:51:15;;;;;;;3.47;3.23;;;24.00;59.80;23.50;96701.00;;;;4954065;28;20197;-83
2023/07/11 04:53:42;;;;;;;3.80;3.50;;;24.00;59.80;23.50;96702.00;;;;4970663;28;20297;-83
2023/07/11 04:56:11;;;;;;;4.87;3.53;;;24.00;59.80;23.60;96704.00;;;;4959925;28;20226;-84
2023/07/11 04:58:39;;;;;;;4.23;3.83;;;24.00;59.80;23.60;96699.00;;;;4966727;28;20199;-84
2023/07/11 05:01:10;;;;;;;5.13;3.93;;;24.00;59.90;23.60;96705.00;;;;4949974;28;20636;-83
2023/07/11 05:03:37;;;;;;;3.90;3.60;;;24.00;60.00;23.60;96701.00;;;;4972791;28;20203;-85
2023/07/11 05:06:09;;;;;;;3.80;3.50;;;24.00;60.90;23.70;96701.00;;;;4975692;28;20232;-85
2023/07/11 05:08:36;;;;;;;5.27;3.50;;;24.10;60.40;23.70;96702.00;;;;4958423;28;20581;-85
2023/07/11 05:11:07;;;;;;;3.77;3.47;;;24.10;60.20;23.70;96703.00;;;;4979178;28;20211;-84
2023/07/11 05:13:35;;;;;;;4.50;3.73;;;24.10;60.30;23.70;96699.00;;;;4978554;28;20682;-85
2023/07/11 05:16:05;;;;;;;3.57;3.33;;;24.20;60.30;23.80;96700.00;;;;4983706;28;20309;-85
2023/07/11 05:18:34;;;;;;;4.53;3.87;;;24.20;60.50;23.80;96700.00;;;;4949679;29;20207;-84
2023/07/11 05:21:02;;;;;;;4.17;3.63;;;24.20;60.60;23.90;96701.00;;;;4986050;28;20208;-85
2023/07/11 05:23:31;;;;;;;3.77;3.47;;;24.20;60.50;23.90;96701.00;;;;4983680;28;20191;-84
2023/07/11 05:25:58;;;;;;;4.13;3.77;;;24.30;60.30;24.00;96701.00;;;;4991165;28;20259;-84
2023/07/11 05:28:26;;;;;;;3.93;3.63;;;24.30;60.20;24.00;96699.00;;;;4969951;28;20199;-84
2023/07/11 05:30:55;;;;;;;4.20;3.80;;;24.30;60.70;24.00;96702.00;;;;4975226;28;20582;-85
2023/07/11 05:33:23;;;;;;;3.57;3.33;;;24.40;60.80;24.00;96701.00;;;;4973935;28;20206;-85
2023/07/11 05:35:59;;;;;;;4.10;3.80;;;24.40;60.80;24.10;96702.00;;;;4958322;28;20359;-85
2023/07/11 05:38:27;;;;;;;4.00;3.60;;;24.40;60.90;24.10;96702.00;;;;4966776;28;20199;-84
2023/07/11 05:40:58;;;;;;;3.80;3.50;;;24.40;60.80;24.10;96704.00;;;;4949045;28;20203;-84
2023/07/11 05:43:25;;;;;;;3.83;3.50;;;24.50;60.80;24.20;96701.00;;;;4956374;28;20211;-85
2023/07/11 05:45:52;;;;;;;3.77;3.40;;;24.50;60.80;24.20;96697.00;;;;4967503;28;20729;-86
2023/07/11 05:48:19;;;;;;;5.13;3.90;;;24.60;61.10;24.30;96697.00;;;;4964322;28;20213;-85
2023/07/11 05:50:58;;;;;;;3.93;3.53;;;24.60;60.80;24.30;96696.00;;;;4959749;28;20239;-85
2023/07/11 05:53:25;;;;;;;4.30;3.90;;;24.60;60.60;24.40;96692.00;;;;4962731;28;20205;-84
2023/07/11 05:55:52;;;;;;;3.70;3.30;;;24.70;61.20;24.40;96689.00;;;;4951704;28;20230;-84
2023/07/11 05:58:21;;;;;;;4.57;3.67;;;24.80;60.40;24.50;96686.00;;;;4958686;28;20225;-84
2023/07/11 06:00:48;;;;;;;3.90;3.60;;;24.80;60.70;24.60;96686.00;;;;4968770;28;20568;-84
2023/07/11 06:03:15;;;;;;;3.50;3.20;;;24.90;60.50;24.60;96681.00;;;;4965367;28;20290;-84
2023/07/11 06:05:43;;;;;;;4.20;3.80;;;24.90;60.70;24.70;96686.00;;;;4966908;28;20234;-84
2023/07/11 06:08:12;;;;;;;4.20;3.80;;;25.00;60.50;24.70;96697.00;;;;4951226;28;20207;-84
2023/07/11 06:10:39;;;;;;;5.00;4.10;;;25.00;60.60;24.80;96690.00;;;;4966889;28;20281;-84
2023/07/11 06:13:06;;;;;;;4.57;3.60;;;25.10;60.80;24.90;96689.00;;;;4960152;28;20211;-84
2023/07/11 06:15:35;;;;;;;4.50;4.10;;;25.20;61.10;24.90;96693.00;;;;4959048;28;20220;-84
2023/07/11 06:18:03;;;;;;;4.40;4.00;;;25.20;60.90;25.00;96695.00;;;;4960031;28;20583;-84
2023/07/11 06:20:30;;;;;;;4.67;4.27;;;25.30;60.80;25.10;96692.00;;;;4969964;28;20649;-85
2023/07/11 06:22:58;;;;;;;4.23;3.87;;;25.30;61.30;25.20;96683.00;;;;4961279;28;20283;-85
2023/07/11 06:25:26;;;;;;;3.60;3.30;;;25.40;62.10;25.30;96688.00;;;;4963552;28;20195;-84
2023/07/11 06:27:53;;;;;;;4.67;3.30;;;25.50;61.10;25.40;96688.00;;;;4969781;28;20215;-84
2023/07/11 06:30:21;;;;;;;4.13;3.83;;;25.60;61.60;25.50;96683.00;;;;4965395;28;20195;-84
2023/07/11 06:32:50;;;;;;;5.03;4.60;;;25.70;60.90;25.50;96684.00;;;;4971399;28;20212;-84
2023/07/11 06:35:17;;;;;;;5.40;4.90;;;25.80;60.60;25.60;96676.00;;;;4949592;28;20203;-84
2023/07/11 06:37:44;;;;;;;6.17;4.23;;;25.80;60.40;25.70;96684.00;;;;4966374;28;20199;-84
2023/07/11 06:40:12;;;;;;;4.60;4.10;;;25.90;60.60;25.80;96687.00;;;;4958495;28;20204;-84
2023/07/11 06:42:40;;;;;;;4.90;4.40;;;26.00;60.80;25.90;96688.00;;;;4963255;28;20581;-84
2023/07/11 06:45:09;;;;;;;5.43;3.83;;;26.10;60.80;26.00;96692.00;;;;4953507;28;20440;-84
2023/07/11 06:47:36;;;;;;;4.60;3.90;;;26.20;60.30;26.10;96691.00;;;;4961903;28;20222;-84
2023/07/11 06:50:06;;;;;;;4.87;4.30;;;26.30;60.10;26.10;96696.00;;;;4964002;28;20199;-84
2023/07/11 06:52:33;;;;;;;4.73;3.97;;;26.30;59.70;26.20;96697.00;;;;4958438;28;20203;-84
2023/07/11 06:55:00;;;;;;;4.57;3.60;;;26.40;59.40;26.30;96691.00;;;;4959291;28;20282;-84
2023/07/11 06:57:27;;;;;;;3.90;3.60;;;26.50;59.40;26.40;96693.00;;;;4966776;28;20333;-84
2023/07/11 06:59:55;;;;;;;3.67;3.37;;;26.60;58.60;26.50;96690.00;;;;4952454;28;20208;-85
2023/07/11 07:02:22;;;;;;;5.27;3.80;;;26.70;58.60;26.60;96685.00;;;;4962977;28;20210;-84
2023/07/11 07:04:49;;;;;;;3.73;3.43;;;26.70;58.00;26.60;96689.00;;;;4972114;28;20219;-84
2023/07/11 07:07:19;;;;;;;3.60;2.73;;;26.80;57.80;26.70;96690.00;;;;4967253;28;20238;-84
2023/07/11 07:09:46;;;;;;;4.80;3.20;;;26.90;57.60;26.90;96695.00;;;;4967935;28;20203;-84
2023/07/11 07:12:14;;;;;;;5.33;3.27;;;27.00;56.40;27.00;96681.00;;;;4955677;28;20214;-85
2023/07/11 07:14:41;;;;;;;3.07;2.77;;;27.10;56.20;27.20;96689.00;;;;4963209;28;20217;-84
2023/07/11 07:17:08;;;;;;;2.80;2.60;;;27.20;56.40;27.30;96689.00;;;;4971900;28;20800;-84
2023/07/11 07:19:35;;;;;;;3.10;2.80;;;27.30;56.50;27.50;96688.00;;;;4956798;28;20214;-84
2023/07/11 07:22:03;;;;;;;2.88;2.67;;;27.50;56.80;27.60;96684.00;;;;4966468;28;20234;-84
2023/07/11 07:24:31;;;;;;;4.32;2.97;;;27.60;56.90;27.70;96684.00;;;;4964171;28;20204;-83
2023/07/11 07:26:58;;;;;;;3.63;2.90;;;27.80;56.70;27.90;96684.00;;;;4957178;28;20223;-83
2023/07/11 07:29:26;;;;;;;3.13;2.83;;;27.90;56.20;28.00;96682.00;;;;4964635;28;20207;-84
2023/07/11 07:31:53;;;;;;;2.70;2.50;;;28.00;55.60;28.10;96688.00;;;;4966850;28;20274;-83
2023/07/11 07:34:20;;;;;;;2.92;2.72;;;28.20;56.00;28.30;96685.00;;;;4968170;28;20283;-83
2023/07/11 07:36:47;;;;;;;3.30;2.85;;;28.30;54.40;28.50;96679.00;;;;4969969;28;20255;-83
2023/07/11 07:39:15;;;;;;;2.80;2.60;;;28.50;54.20;28.70;96681.00;;;;4970799;28;20210;-82
2023/07/11 07:41:43;;;;;;;3.72;2.50;;;28.60;54.20;28.80;96677.00;;;;4963313;28;20570;-83
2023/07/11 07:44:12;;;;;;;2.47;2.28;;;28.80;54.10;29.00;96679.00;;;;4969032;28;20230;-83
2023/07/11 07:46:40;;;;;;;2.75;2.33;;;29.00;54.10;29.10;96679.00;;;;4972893;28;20227;-83
2023/07/11 07:49:07;;;;;;;2.50;2.38;;;29.10;53.60;29.20;96679.00;;;;4958232;28;20204;-84
2023/07/11 07:51:34;;;;;;;3.10;2.80;;;29.30;53.30;29.40;96680.00;;;;4974538;28;20203;-82
2023/07/11 07:54:01;;;;;;;2.65;2.33;;;29.40;52.70;29.50;96677.00;;;;4973525;28;20282;-84
2023/07/11 07:56:30;;;;;;;2.88;2.55;;;29.50;52.30;29.60;96673.00;;;;4970766;28;20254;-84
2023/07/11 07:58:59;;;;;;;2.70;2.33;;;29.60;52.30;29.70;96673.00;;;;4966099;28;20200;-84
2023/07/11 08:01:26;;;;;;;2.47;2.28;;;29.80;51.00;29.80;96668.00;;;;4955200;28;20223;-85
2023/07/11 08:03:53;;;;;;;3.80;2.47;;;29.90;51.50;29.90;96677.00;;;;4959885;28;20210;-83
2023/07/11 08:06:20;;;;;;;2.45;2.25;;;30.00;50.70;30.10;96676.00;;;;4968663;28;20225;-83
2023/07/11 08:08:50;;;;;;;3.35;2.47;;;30.10;49.80;30.20;96665.00;;;;4973624;28;20210;-84
2023/07/11 08:11:21;;;;;;;2.33;1.95;;;30.20;49.40;30.30;96671.00;;;;4973637;28;20220;-84
2023/07/11 08:13:49;;;;;;;2.75;2.55;;;30.40;49.80;30.40;96672.00;;;;4970234;28;20203;-83
2023/07/11 08:16:20;;;;;;;2.83;2.40;;;30.50;49.50;30.60;96676.00;;;;4969185;28;20219;-84
2023/07/11 08:18:47;;;;;;;2.65;2.45;;;30.60;49.40;30.70;96671.00;;;;4963090;28;20411;-83
2023/07/11 08:21:15;;;;;;;3.45;2.35;;;30.70;49.50;30.90;96677.00;;;;4964553;28;20207;-84
2023/07/11 08:23:42;;;;;;;2.67;2.47;;;30.90;49.20;31.00;96669.00;;;;4963780;28;20207;-83
2023/07/11 08:26:10;;;;;;;3.00;2.67;;;31.00;49.20;31.10;96671.00;;;;4972681;28;20231;-84
2023/07/11 08:28:37;;;;;;;2.22;2.03;;;31.10;49.10;31.30;96669.00;;;;4973708;28;20203;-83
2023/07/11 08:31:05;;;;;;;2.70;2.50;;;31.20;48.80;31.40;96666.00;;;;4969393;28;20653;-84
2023/07/11 08:33:34;;;;;;;2.30;2.13;;;31.40;48.30;31.50;96664.00;;;;4966520;28;20196;-84
2023/07/11 08:36:01;;;;;;;2.50;2.30;;;31.50;48.10;31.70;96663.00;;;;4959497;28;20301;-84
2023/07/11 08:38:28;;;;;;;3.03;2.35;;;31.70;47.80;31.80;96654.00;;;;4955632;28;20676;-84
2023/07/11 08:40:56;;;;;;;2.58;2.38;;;31.80;47.10;32.00;96661.00;;;;4965861;28;20199;-84
2023/07/11 08:43:31;;;;;;;2.72;2.53;;;31.90;47.20;32.10;96654.00;;;;4971837;28;20290;-83
2023/07/11 08:46:05;;;;;;;2.45;2.20;;;32.10;46.80;32.30;96656.00;;;;4972585;28;20662;-83
2023/07/11 08:48:42;;;;;;;2.40;2.20;;;32.20;46.80;32.40;96650.00;;;;4972666;28;20297;-84
2023/07/11 08:51:23;;;;;;;3.10;2.45;;;32.40;46.10;32.60;96653.00;;;;4972126;28;20206;-84
2023/07/11 08:53:58;;;;;;;3.03;2.50;;;32.50;46.20;32.70;96654.00;;;;4970019;28;20199;-83
2023/07/11 08:56:36;;;;;;;2.58;2.38;;;32.70;46.10;32.90;96652.00;;;;4971982;28;20221;-83
2023/07/11 08:59:08;;;;;;;2.70;2.50;;;32.80;45.20;33.00;96654.00;;;;4965483;28;20203;-83
2023/07/11 09:01:45;;;;;;;2.45;2.30;;;33.00;45.30;33.20;96658.00;;;;4952312;28;20562;-85
2023/07/11 09:04:24;;;;;;;2.58;2.15;;;33.10;45.90;33.30;96654.00;;;;4967615;28;20318;-84
2023/07/11 09:06:57;;;;;;;2.47;2.17;;;33.20;44.50;33.40;96659.00;;;;4958944;28;20246;-84
2023/07/11 09:09:26;;;;;;;3.33;2.38;;;33.40;45.10;33.60;96657.00;;;;4963321;28;20208;-83
2023/07/11 09:12:11;;;;;;;2.70;2.50;;;33.50;45.30;33.70;96649.00;;;;4966217;28;20211;-83
2023/07/11 09:14:53;;;;;;;3.78;2.67;;;33.60;44.10;33.90;96651.00;;;;4969794;28;20222;-83
2023/07/11 09:17:37;;;;;;;2.60;2.40;;;33.80;43.40;34.00;96645.00;;;;4967917;28;20219;-84
2023/07/11 09:20:25;;;;;;;3.22;2.30;;;33.90;44.10;34.10;96645.00;;;;4970135;28;20207;-83
2023/07/11 09:23:08;;;;;;;3.20;2.45;;;34.00;44.60;34.30;96642.00;;;;4953029;28;20196;-83
2023/07/11 09:25:41;;;;;;;2.92;2.10;;;34.20;44.70;34.40;96634.00;;;;4972354;28;20222;-84
2023/07/11 09:28:19;;;;;;;4.15;2.33;;;34.30;43.60;34.60;96634.00;;;;4968605;28;20307;-84
2023/07/11 09:30:53;;;;;;;3.72;2.15;;;34.50;43.00;34.70;96624.00;;;;4971888;28;20199;-82
2023/07/11 09:33:23;;;;;;;3.78;2.70;;;34.60;43.40;34.90;96622.00;;;;4970073;28;20204;-83
2023/07/11 09:35:53;;;;;;;3.30;2.60;;;34.80;43.50;35.10;96622.00;;;;4967508;28;20229;-82
2023/07/11 09:38:30;;;;;;;2.28;2.08;;;34.90;43.20;35.20;96619.00;;;;4968055;28;20287;-84
2023/07/11 09:41:05;;;;;;;2.42;2.22;;;35.10;42.30;35.40;96619.00;;;;4973312;28;20203;-86
2023/07/11 09:43:32;;;;;;;2.63;2.42;;;35.30;42.00;35.60;96616.00;;;;4971067;28;20199;-84
2023/07/11 09:45:59;;;;;;;7.07;2.60;;;35.50;42.10;35.70;96621.00;;;;4971530;28;20223;-85
2023/07/11 09:48:34;;;;;;;2.80;2.55;;;35.70;41.90;35.90;96617.00;;;;4969841;28;20233;-82
2023/07/11 09:51:24;;;;;;;2.63;2.42;;;35.80;42.50;36.00;96614.00;;;;4972740;28;20195;-83
2023/07/11 09:53:54;;;;;;;3.45;2.05;;;36.10;40.90;36.10;96610.00;;;;4969320;28;20199;-84
2023/07/11 09:56:23;;;;;;;2.60;2.40;;;36.20;41.60;36.30;96621.00;;;;4966817;28;20231;-83
2023/07/11 09:58:53;;;;;;;2.60;2.40;;;36.40;42.00;36.40;96612.00;;;;4966646;28;20196;-83
2023/07/11 10:01:26;;;;;;;3.25;2.70;;;36.60;41.00;36.60;96613.00;;;;4967520;28;20863;-83
2023/07/11 10:03:56;;;;;;;2.63;2.42;;;36.80;40.40;36.70;96609.00;;;;4961889;28;20283;-83
2023/07/11 10:06:33;;;;;;;2.67;2.47;;;37.10;40.40;36.90;96613.00;;;;4963297;28;20247;-83
2023/07/11 10:09:15;;;;;;;2.70;2.50;;;37.30;39.70;37.10;96610.00;;;;4963675;28;20222;-82
2023/07/11 10:11:47;;;;;;;2.28;2.15;;;37.60;39.90;37.30;96611.00;;;;4989914;28;20233;-82
2023/07/11 10:14:21;;;;;;;10.18;2.95;;;37.90;40.30;37.40;96616.00;;;;4961099;28;20196;-84
2023/07/11 10:16:49;;;;;;;3.38;2.90;;;38.10;39.50;37.50;96607.00;;;;4946673;28;20277;-86
2023/07/11 10:19:17;;;;;;;3.80;2.42;;;38.30;39.10;37.60;96601.00;;;;4971868;28;20202;-85
2023/07/11 10:21:49;;;;;;;2.53;2.33;;;38.40;38.90;37.70;96605.00;;;;4963904;28;20199;-85
2023/07/11 10:24:21;;;;;;;3.03;2.28;;;38.60;38.40;37.80;96604.00;;;;4959667;28;20728;-86
2023/07/11 10:26:57;;;;;;;2.40;2.20;;;38.70;37.90;37.90;96592.00;;;;4974010;28;20225;-85
2023/07/11 10:29:29;;;;;;;2.50;2.30;;;38.80;37.70;38.00;96585.00;;;;4966760;28;20295;-83
2023/07/11 10:32:02;;;;;;;2.78;2.58;;;38.80;38.20;38.10;96588.00;;;;4971914;28;20199;-85
2023/07/11 10:34:38;;;;;;;2.85;2.58;;;38.90;38.10;38.10;96578.00;;;;4970756;28;20207;-83
2023/07/11 10:37:16;;;;;;;2.70;2.50;;;39.00;37.70;38.10;96573.00;;;;4968734;28;20752;-84
2023/07/11 10:39:50;;;;;;;2.00;1.90;;;39.00;37.60;38.20;96578.00;;;;4968330;28;20207;-82
2023/07/11 10:42:31;;;;;;;2.45;2.25;;;39.00;38.00;38.30;96568.00;;;;4967059;28;20219;-83
2023/07/11 10:45:09;;;;;;;3.10;2.20;;;39.00;37.80;38.40;96570.00;;;;4961983;28;20198;-84
2023/07/11 10:47:42;;;;;;;2.63;2.40;;;39.10;37.90;38.50;96574.00;;;;4964003;28;20245;-84
2023/07/11 10:50:30;;;;;;;2.90;2.20;;;39.10;37.60;38.50;96571.00;;;;4971348;28;20203;-84
2023/07/11 10:53:09;;;;;;;3.42;2.38;;;39.10;36.80;38.50;96567.00;;;;4969893;28;20199;-84
2023/07/11 10:55:47;;;;;;;2.55;2.35;;;39.10;37.30;38.50;96561.00;;;;4962182;28;20706;-84
2023/07/11 10:58:22;;;;;;;2.70;2.50;;;39.00;37.60;38.50;96554.00;;;;4960587;28;20235;-83
2023/07/11 11:01:03;;;;;;;2.90;2.70;;;38.90;37.10;38.50;96550.00;;;;4968511;28;20191;-82
2023/07/11 11:03:39;;;;;;;2.90;2.70;;;38.90;37.10;38.40;96545.00;;;;4968821;28;20201;-82
2023/07/11 11:06:44;;;;;;;3.65;2.28;;;38.80;37.00;38.30;96539.00;;;;4970912;28;20317;-83